Del Rio, Tennessee
Current Conditions -  °F | °C
As of 6:55 PM on Thursday 27 Nov 2014 (Local Time) from KMOR Reporting Station
Broken Clouds Broken Clouds  
Wind Chill: 25°   Ceiling: 2400
Heat Index: 34°   Visibility: 10mi
Dew Point: 27°   Wind: 13mph
Humidity: 75%   Direction: 320°NW
Pressure: 30.34"   Gusts: NA
Location:  35.92°N, 83.03°W
Report Text: KMOR 272355Z AUTO 32011KT 10SM BKN024 BKN028 BKN034 01/M03 A3034 RMK
Loading
Personal Weather Stations






























Interactive Weather Map New forecast layout! Learn more

10-Day Weather Forecast

Advertisements
Track Severe Weather on mobile